createdAt,value
2022-08-17T00:00:34.937Z,933.69
2022-08-17T00:01:19.002Z,933.72
2022-08-17T00:02:26.216Z,933.67
2022-08-17T00:03:18.921Z,933.71
2022-08-17T00:04:18.943Z,933.76
2022-08-17T00:05:18.953Z,933.77
2022-08-17T00:06:18.967Z,933.80
2022-08-17T00:07:18.985Z,933.86
2022-08-17T00:08:18.997Z,933.85
2022-08-17T00:09:19.558Z,933.87
2022-08-17T00:10:19.029Z,933.95
2022-08-17T00:11:19.059Z,933.85
2022-08-17T00:12:40.367Z,933.94
2022-08-17T00:13:19.073Z,933.92
2022-08-17T00:14:19.090Z,933.99
2022-08-17T00:15:19.105Z,934.01
2022-08-17T00:16:19.120Z,934.02
2022-08-17T00:17:19.139Z,934.04
2022-08-17T00:19:02.140Z,934.04
2022-08-17T00:19:19.570Z,934.01
2022-08-17T00:20:19.181Z,934.00
2022-08-17T00:21:23.797Z,934.00
2022-08-17T00:22:31.501Z,934.04
2022-08-17T00:23:19.233Z,934.02
2022-08-17T00:24:19.243Z,934.03
2022-08-17T00:25:19.258Z,934.00
2022-08-17T00:26:44.543Z,933.95
2022-08-17T00:27:19.289Z,933.98
2022-08-17T00:28:19.304Z,934.00
2022-08-17T00:29:19.980Z,934.00
2022-08-17T00:30:19.333Z,934.00
2022-08-17T00:31:19.349Z,934.02
2022-08-17T00:33:14.163Z,934.02
2022-08-17T00:33:19.379Z,934.05
2022-08-17T00:34:19.395Z,934.06
2022-08-17T00:35:19.412Z,934.06
2022-08-17T00:36:19.428Z,934.14
2022-08-17T00:37:19.440Z,934.14
2022-08-17T00:38:19.456Z,934.15
2022-08-17T00:39:19.470Z,934.15
2022-08-17T00:40:19.486Z,934.14
2022-08-17T00:41:19.500Z,934.09
2022-08-17T00:42:19.516Z,934.09
2022-08-17T00:43:19.534Z,934.02
2022-08-17T00:44:19.548Z,934.02
2022-08-17T00:45:19.563Z,934.05
2022-08-17T00:46:19.577Z,934.07
2022-08-17T00:47:19.592Z,934.01
2022-08-17T00:48:29.088Z,934.02
2022-08-17T00:49:19.635Z,934.06
2022-08-17T00:50:19.639Z,934.03
2022-08-17T00:51:19.655Z,934.06
2022-08-17T00:52:19.669Z,934.04
2022-08-17T00:53:19.685Z,934.09
2022-08-17T00:54:19.701Z,934.06
2022-08-17T00:55:19.715Z,933.99
2022-08-17T00:56:19.729Z,934.03
2022-08-17T00:57:19.744Z,934.02
2022-08-17T00:58:19.761Z,934.00
2022-08-17T00:59:19.777Z,934.03
2022-08-17T01:00:19.792Z,934.05
2022-08-17T01:01:21.791Z,934.05
2022-08-17T01:02:19.821Z,934.11
2022-08-17T01:03:19.837Z,934.10
2022-08-17T01:04:19.853Z,934.13
2022-08-17T01:05:19.866Z,934.16
2022-08-17T01:06:19.891Z,934.15
2022-08-17T01:07:19.897Z,934.21
2022-08-17T01:08:19.911Z,934.18
2022-08-17T01:09:19.927Z,934.16
2022-08-17T01:10:57.655Z,934.19
2022-08-17T01:11:19.959Z,934.22
2022-08-17T01:12:19.973Z,934.16
2022-08-17T01:13:19.990Z,934.13
2022-08-17T01:14:20.004Z,934.10
2022-08-17T01:15:20.021Z,934.07
2022-08-17T01:16:20.033Z,934.11
2022-08-17T01:17:20.050Z,934.14
2022-08-17T01:18:20.065Z,934.14
2022-08-17T01:19:20.080Z,934.20
2022-08-17T01:20:20.098Z,934.23
2022-08-17T01:21:20.110Z,934.25
2022-08-17T01:22:20.123Z,934.23
2022-08-17T01:23:20.551Z,934.24
2022-08-17T01:24:20.154Z,934.30
2022-08-17T01:25:20.170Z,934.32
2022-08-17T01:26:20.186Z,934.28
2022-08-17T01:27:20.610Z,934.33
2022-08-17T01:28:33.336Z,934.33
2022-08-17T01:29:20.230Z,934.39
2022-08-17T01:30:57.253Z,934.37
2022-08-17T01:31:20.260Z,934.41
2022-08-17T01:32:20.276Z,934.38
2022-08-17T01:33:20.289Z,934.40
2022-08-17T01:34:20.305Z,934.37
2022-08-17T01:35:20.321Z,934.40
2022-08-17T01:36:20.334Z,934.36
2022-08-17T01:37:20.957Z,934.39
2022-08-17T01:38:27.222Z,934.42
2022-08-17T01:39:20.381Z,934.41
2022-08-17T01:40:20.396Z,934.41
2022-08-17T01:41:20.410Z,934.35
2022-08-17T01:42:20.427Z,934.40
2022-08-17T01:43:20.443Z,934.43
2022-08-17T01:44:20.457Z,934.46
2022-08-17T01:45:20.472Z,934.47
2022-08-17T01:46:20.488Z,934.45
2022-08-17T01:47:20.502Z,934.46
2022-08-17T01:48:20.516Z,934.45
2022-08-17T01:49:20.532Z,934.47
2022-08-17T01:50:20.547Z,934.43
2022-08-17T01:51:20.563Z,934.42
2022-08-17T01:52:20.577Z,934.39
2022-08-17T01:53:20.594Z,934.42
2022-08-17T01:54:20.606Z,934.40
2022-08-17T01:55:24.583Z,934.39
2022-08-17T01:56:20.636Z,934.38
2022-08-17T01:57:20.650Z,934.36
2022-08-17T01:58:20.667Z,934.39
2022-08-17T01:59:20.681Z,934.33
2022-08-17T02:00:20.695Z,934.37
2022-08-17T02:01:20.770Z,934.37
2022-08-17T02:02:30.383Z,934.39
2022-08-17T02:03:20.742Z,934.45
2022-08-17T02:04:20.758Z,934.44
2022-08-17T02:05:20.771Z,934.46
2022-08-17T02:06:27.495Z,934.45
2022-08-17T02:07:20.803Z,934.44
2022-08-17T02:08:20.816Z,934.49
2022-08-17T02:09:24.026Z,934.50
2022-08-17T02:10:20.848Z,934.47
2022-08-17T02:11:20.863Z,934.54
2022-08-17T02:12:39.340Z,934.53
2022-08-17T02:13:20.891Z,934.49
2022-08-17T02:14:20.914Z,934.61
2022-08-17T02:15:20.921Z,934.57
2022-08-17T02:16:20.936Z,934.57
2022-08-17T02:17:20.951Z,934.58
2022-08-17T02:18:20.966Z,934.54
2022-08-17T02:19:20.981Z,934.54
2022-08-17T02:20:42.554Z,934.59
2022-08-17T02:21:21.011Z,934.57
2022-08-17T02:22:21.025Z,934.59
2022-08-17T02:23:21.042Z,934.62
2022-08-17T02:25:01.150Z,934.65
2022-08-17T02:25:21.071Z,934.61
2022-08-17T02:26:23.994Z,934.64
2022-08-17T02:27:21.103Z,934.69
2022-08-17T02:28:21.117Z,934.60
2022-08-17T02:29:21.131Z,934.64
2022-08-17T02:30:59.491Z,934.61
2022-08-17T02:31:21.161Z,934.63
2022-08-17T02:32:27.488Z,934.62
2022-08-17T02:33:21.190Z,934.63
2022-08-17T02:34:21.204Z,934.64
2022-08-17T02:35:21.222Z,934.64
2022-08-17T02:36:26.846Z,934.65
2022-08-17T02:37:21.252Z,934.61
2022-08-17T02:38:21.264Z,934.67
2022-08-17T02:39:21.279Z,934.62
2022-08-17T02:40:36.647Z,934.66
2022-08-17T02:41:21.310Z,934.63
2022-08-17T02:42:21.325Z,934.63
2022-08-17T02:43:21.342Z,934.61
2022-08-17T02:44:35.530Z,934.59
2022-08-17T02:45:21.369Z,934.60
2022-08-17T02:46:21.386Z,934.55
2022-08-17T02:47:21.401Z,934.58
2022-08-17T02:48:29.697Z,934.57
2022-08-17T02:49:21.430Z,934.58
2022-08-17T02:50:21.445Z,934.60
2022-08-17T02:51:21.460Z,934.58
2022-08-17T02:52:41.926Z,934.58
2022-08-17T02:53:21.489Z,934.56
2022-08-17T02:54:39.334Z,934.52
2022-08-17T02:55:21.518Z,934.55
2022-08-17T02:56:21.533Z,934.60
2022-08-17T02:57:21.551Z,934.65
2022-08-17T02:58:34.786Z,934.59
2022-08-17T02:59:21.576Z,934.61
2022-08-17T03:00:21.591Z,934.61
2022-08-17T03:01:21.662Z,934.59
2022-08-17T03:02:21.646Z,934.56
2022-08-17T03:03:21.641Z,934.54
2022-08-17T03:04:21.662Z,934.52
2022-08-17T03:05:21.664Z,934.49
2022-08-17T03:06:21.680Z,934.42
2022-08-17T03:07:21.696Z,934.43
2022-08-17T03:08:21.710Z,934.40
2022-08-17T03:09:21.725Z,934.35
2022-08-17T03:10:21.739Z,934.38
2022-08-17T03:11:21.756Z,934.41
2022-08-17T03:12:21.769Z,934.35
2022-08-17T03:13:21.785Z,934.33
2022-08-17T03:14:21.801Z,934.36
2022-08-17T03:15:21.814Z,934.37
2022-08-17T03:16:21.829Z,934.36
2022-08-17T03:17:21.844Z,934.37
2022-08-17T03:18:24.616Z,934.39
2022-08-17T03:19:21.874Z,934.37
2022-08-17T03:20:21.889Z,934.35
2022-08-17T03:21:21.916Z,934.33
2022-08-17T03:22:36.622Z,934.27
2022-08-17T03:23:23.949Z,934.30
2022-08-17T03:24:21.948Z,934.26
2022-08-17T03:25:22.721Z,934.22
2022-08-17T03:26:21.977Z,934.24
2022-08-17T03:27:21.992Z,934.19
2022-08-17T03:28:22.011Z,934.21
2022-08-17T03:29:22.021Z,934.20
2022-08-17T03:30:22.035Z,934.24
2022-08-17T03:31:22.050Z,934.26
2022-08-17T03:32:22.064Z,934.28
2022-08-17T03:33:22.082Z,934.30
2022-08-17T03:34:22.094Z,934.31
2022-08-17T03:35:22.112Z,934.30
2022-08-17T03:36:22.125Z,934.33
2022-08-17T03:37:22.142Z,934.33
2022-08-17T03:38:22.153Z,934.30
2022-08-17T03:39:22.169Z,934.32
2022-08-17T03:40:55.875Z,934.29
2022-08-17T03:41:22.198Z,934.29
2022-08-17T03:42:31.815Z,934.26
2022-08-17T03:43:22.230Z,934.26
2022-08-17T03:44:22.243Z,934.25
2022-08-17T03:45:22.258Z,934.23
2022-08-17T03:46:27.866Z,934.28
2022-08-17T03:47:22.287Z,934.24
2022-08-17T03:48:22.300Z,934.23
2022-08-17T03:49:22.316Z,934.21
2022-08-17T03:50:22.331Z,934.19
2022-08-17T03:51:22.347Z,934.20
2022-08-17T03:52:22.360Z,934.17
2022-08-17T03:53:22.378Z,934.16
2022-08-17T03:54:22.393Z,934.13
2022-08-17T03:55:22.405Z,934.14
2022-08-17T03:56:22.425Z,934.14
2022-08-17T03:57:22.437Z,934.12
2022-08-17T03:58:22.448Z,934.08
2022-08-17T03:59:22.688Z,934.09
2022-08-17T04:00:22.482Z,934.07
2022-08-17T04:01:22.538Z,934.06
2022-08-17T04:02:22.506Z,934.06
2022-08-17T04:03:22.522Z,934.06
2022-08-17T04:04:27.592Z,934.11
2022-08-17T04:05:22.554Z,934.08
2022-08-17T04:06:22.571Z,934.10
2022-08-17T04:07:22.582Z,934.16
2022-08-17T04:08:22.597Z,934.20
2022-08-17T04:09:22.610Z,934.18
2022-08-17T04:10:26.288Z,934.16
2022-08-17T04:11:22.641Z,934.14
2022-08-17T04:12:22.655Z,934.08
2022-08-17T04:13:24.972Z,934.10
2022-08-17T04:14:22.684Z,934.06
2022-08-17T04:15:22.699Z,934.07
2022-08-17T04:16:22.713Z,934.00
2022-08-17T04:17:22.727Z,934.01
2022-08-17T04:18:22.741Z,934.01
2022-08-17T04:19:22.755Z,934.01
2022-08-17T04:20:22.770Z,933.99
2022-08-17T04:21:22.787Z,933.97
2022-08-17T04:22:33.121Z,934.01
2022-08-17T04:23:22.814Z,933.94
2022-08-17T04:24:22.827Z,933.94
2022-08-17T04:25:22.843Z,933.90
2022-08-17T04:26:53.872Z,933.91
2022-08-17T04:27:22.873Z,933.92
2022-08-17T04:28:22.887Z,933.92
2022-08-17T04:29:22.904Z,933.89
2022-08-17T04:30:22.917Z,933.90
2022-08-17T04:31:22.933Z,933.97
2022-08-17T04:32:59.209Z,933.95
2022-08-17T04:33:22.961Z,933.96
2022-08-17T04:34:22.976Z,933.91
2022-08-17T04:35:22.989Z,933.87
2022-08-17T04:36:23.003Z,933.91
2022-08-17T04:37:23.018Z,933.91
2022-08-17T04:38:23.037Z,933.89
2022-08-17T04:39:23.049Z,933.88
2022-08-17T04:40:23.071Z,933.87
2022-08-17T04:41:23.076Z,933.86
2022-08-17T04:42:23.092Z,933.84
2022-08-17T04:43:23.111Z,933.83
2022-08-17T04:44:36.895Z,933.83
2022-08-17T04:45:23.135Z,933.79
2022-08-17T04:46:23.150Z,933.75
2022-08-17T04:47:23.165Z,933.74
2022-08-17T04:48:23.179Z,933.72
2022-08-17T04:49:23.194Z,933.69
2022-08-17T04:50:23.209Z,933.68
2022-08-17T04:51:23.224Z,933.68
2022-08-17T04:52:37.848Z,933.60
2022-08-17T04:53:23.253Z,933.58
2022-08-17T04:54:23.267Z,933.57
2022-08-17T04:55:23.282Z,933.54
2022-08-17T04:56:23.298Z,933.53
2022-08-17T04:57:23.310Z,933.54
2022-08-17T04:58:23.325Z,933.59
2022-08-17T04:59:23.341Z,933.61
2022-08-17T05:00:23.358Z,933.64
2022-08-17T05:01:24.591Z,933.70
2022-08-17T05:02:23.383Z,933.76
2022-08-17T05:03:23.399Z,933.81
2022-08-17T05:04:33.867Z,933.82
2022-08-17T05:05:23.429Z,933.81
2022-08-17T05:06:23.442Z,933.81
2022-08-17T05:07:26.234Z,933.80
2022-08-17T05:08:23.479Z,933.79
2022-08-17T05:09:23.485Z,933.75
2022-08-17T05:10:23.505Z,933.70
2022-08-17T05:11:23.514Z,933.60
2022-08-17T05:12:23.529Z,933.56
2022-08-17T05:13:23.544Z,933.53
2022-08-17T05:14:33.075Z,933.53
2022-08-17T05:15:23.573Z,933.52
2022-08-17T05:16:23.589Z,933.54
2022-08-17T05:17:23.600Z,933.55
2022-08-17T05:18:24.514Z,933.57
2022-08-17T05:19:23.631Z,933.62
2022-08-17T05:20:23.644Z,933.62
2022-08-17T05:21:23.658Z,933.66
2022-08-17T05:22:23.773Z,933.74
2022-08-17T05:23:23.697Z,933.70
2022-08-17T05:24:40.732Z,933.73
2022-08-17T05:25:25.709Z,933.71
2022-08-17T05:26:26.020Z,933.68
2022-08-17T05:27:23.746Z,933.65
2022-08-17T05:28:26.579Z,933.69
2022-08-17T05:29:23.775Z,933.71
2022-08-17T05:30:23.791Z,933.76
2022-08-17T05:31:23.804Z,933.78
2022-08-17T05:32:38.880Z,933.82
2022-08-17T05:33:23.833Z,933.79
2022-08-17T05:34:23.848Z,933.83
2022-08-17T05:35:23.864Z,933.79
2022-08-17T05:36:42.199Z,933.79
2022-08-17T05:37:23.893Z,933.84
2022-08-17T05:38:23.905Z,933.84
2022-08-17T05:39:24.116Z,933.81
2022-08-17T05:40:23.934Z,933.82
2022-08-17T05:41:23.949Z,933.81
2022-08-17T05:42:23.964Z,933.73
2022-08-17T05:43:23.977Z,933.74
2022-08-17T05:44:23.992Z,933.78
2022-08-17T05:45:55.727Z,933.73
2022-08-17T05:46:24.024Z,933.70
2022-08-17T05:47:24.037Z,933.73
2022-08-17T05:48:35.658Z,933.69
2022-08-17T05:49:24.065Z,933.66
2022-08-17T05:50:27.117Z,933.64
2022-08-17T05:51:24.193Z,933.62
2022-08-17T05:52:24.114Z,933.57
2022-08-17T05:53:24.124Z,933.53
2022-08-17T05:54:24.137Z,933.53
2022-08-17T05:55:24.153Z,933.53
2022-08-17T05:56:29.722Z,933.54
2022-08-17T05:57:24.179Z,933.50
2022-08-17T05:58:24.196Z,933.45
2022-08-17T05:59:24.208Z,933.43
2022-08-17T06:00:30.214Z,933.47
2022-08-17T06:01:24.324Z,933.43
2022-08-17T06:02:24.251Z,933.52
2022-08-17T06:03:24.267Z,933.53
2022-08-17T06:04:24.280Z,933.49
2022-08-17T06:05:24.294Z,933.50
2022-08-17T06:06:25.135Z,933.54
2022-08-17T06:07:24.325Z,933.53
2022-08-17T06:08:24.337Z,933.50
2022-08-17T06:09:28.933Z,933.52
2022-08-17T06:10:24.371Z,933.50
2022-08-17T06:11:24.381Z,933.53
2022-08-17T06:12:24.396Z,933.54
2022-08-17T06:13:24.412Z,933.54
2022-08-17T06:14:24.425Z,933.55
2022-08-17T06:15:24.441Z,933.54
2022-08-17T06:16:28.199Z,933.49
2022-08-17T06:17:24.467Z,933.52
2022-08-17T06:18:24.482Z,933.47
2022-08-17T06:19:24.500Z,933.46
2022-08-17T06:20:24.514Z,933.44
2022-08-17T06:21:24.525Z,933.41
2022-08-17T06:22:24.540Z,933.38
2022-08-17T06:23:24.555Z,933.37
2022-08-17T06:24:24.568Z,933.35
2022-08-17T06:25:24.585Z,933.32
2022-08-17T06:26:25.924Z,933.30
2022-08-17T06:27:24.614Z,933.25
2022-08-17T06:28:24.626Z,933.19
2022-08-17T06:29:24.641Z,933.23
2022-08-17T06:30:24.656Z,933.15
2022-08-17T06:31:24.670Z,933.18
2022-08-17T06:32:24.683Z,933.18
2022-08-17T06:33:24.698Z,933.17
2022-08-17T06:34:24.712Z,933.20
2022-08-17T06:35:28.835Z,933.19
2022-08-17T06:36:25.044Z,933.19
2022-08-17T06:37:24.756Z,933.15
2022-08-17T06:38:37.665Z,933.17
2022-08-17T06:39:24.845Z,933.19
2022-08-17T06:40:24.801Z,933.18
2022-08-17T06:41:24.814Z,933.17
2022-08-17T06:42:54.687Z,933.18
2022-08-17T06:43:24.841Z,933.16
2022-08-17T06:44:43.651Z,933.21
2022-08-17T06:45:24.869Z,933.20
2022-08-17T06:46:24.886Z,933.25
2022-08-17T06:47:28.717Z,933.27
2022-08-17T06:48:24.933Z,933.31
2022-08-17T06:49:24.927Z,933.33
2022-08-17T06:50:24.948Z,933.38
2022-08-17T06:51:24.956Z,933.37
2022-08-17T06:52:46.860Z,933.38
2022-08-17T06:53:25.186Z,933.42
2022-08-17T06:54:24.998Z,933.48
2022-08-17T06:55:25.013Z,933.50
2022-08-17T06:56:25.028Z,933.48
2022-08-17T06:57:25.043Z,933.57
2022-08-17T06:58:29.580Z,933.51
2022-08-17T06:59:25.085Z,933.52
2022-08-17T07:00:25.086Z,933.53
2022-08-17T07:01:25.266Z,933.46
2022-08-17T07:02:29.064Z,933.46
2022-08-17T07:03:25.131Z,933.43
2022-08-17T07:04:25.142Z,933.40
2022-08-17T07:05:25.157Z,933.39
2022-08-17T07:06:25.172Z,933.40
2022-08-17T07:07:25.184Z,933.34
2022-08-17T07:08:29.689Z,933.36
2022-08-17T07:09:25.211Z,933.32
2022-08-17T07:10:25.336Z,933.28
2022-08-17T07:11:25.241Z,933.29
2022-08-17T07:12:25.282Z,933.25
2022-08-17T07:13:25.270Z,933.27
2022-08-17T07:14:25.284Z,933.28
2022-08-17T07:15:25.298Z,933.27
2022-08-17T07:16:25.312Z,933.27
2022-08-17T07:17:47.719Z,933.31
2022-08-17T07:18:25.341Z,933.32
2022-08-17T07:19:25.356Z,933.33
2022-08-17T07:20:25.369Z,933.36
2022-08-17T07:21:26.614Z,933.38
2022-08-17T07:22:25.400Z,933.35
2022-08-17T07:23:25.411Z,933.37
2022-08-17T07:24:30.213Z,933.37
2022-08-17T07:25:25.441Z,933.38
2022-08-17T07:26:25.454Z,933.39
2022-08-17T07:27:25.468Z,933.37
2022-08-17T07:28:25.483Z,933.41
2022-08-17T07:29:25.495Z,933.38
2022-08-17T07:30:25.522Z,933.33
2022-08-17T07:31:25.529Z,933.31
2022-08-17T07:32:25.540Z,933.32
2022-08-17T07:33:25.554Z,933.37
2022-08-17T07:34:25.570Z,933.35
2022-08-17T07:35:31.358Z,933.33
2022-08-17T07:36:29.808Z,933.30
2022-08-17T07:37:25.609Z,933.29
2022-08-17T07:38:26.845Z,933.30
2022-08-17T07:39:25.690Z,933.26
2022-08-17T07:40:25.823Z,933.27
2022-08-17T07:41:25.666Z,933.30
2022-08-17T07:42:25.682Z,933.27
2022-08-17T07:43:25.697Z,933.29
2022-08-17T07:44:25.709Z,933.32
2022-08-17T07:45:25.733Z,933.29
2022-08-17T07:46:25.737Z,933.30
2022-08-17T07:47:25.756Z,933.27
2022-08-17T07:48:25.769Z,933.28
2022-08-17T07:49:25.785Z,933.31
2022-08-17T07:50:26.016Z,933.25
2022-08-17T07:51:25.820Z,933.22
2022-08-17T07:52:51.256Z,933.22
2022-08-17T07:53:25.839Z,933.17
2022-08-17T07:54:25.852Z,933.18
2022-08-17T07:55:25.865Z,933.14
2022-08-17T07:56:25.879Z,933.12
2022-08-17T07:57:29.895Z,933.12
2022-08-17T07:58:25.909Z,933.13
2022-08-17T07:59:27.193Z,933.16
2022-08-17T08:00:31.433Z,933.12
2022-08-17T08:01:26.010Z,933.09
2022-08-17T08:02:31.759Z,933.12
2022-08-17T08:03:26.359Z,933.10
2022-08-17T08:04:58.968Z,933.12
2022-08-17T08:05:48.809Z,933.12
2022-08-17T08:06:26.021Z,933.11
2022-08-17T08:07:26.035Z,933.08
2022-08-17T08:08:26.049Z,933.08
2022-08-17T08:09:26.064Z,933.07
2022-08-17T08:10:26.080Z,933.05
2022-08-17T08:11:26.092Z,933.03
2022-08-17T08:12:26.105Z,933.01
2022-08-17T08:13:26.221Z,933.00
2022-08-17T08:14:28.580Z,933.01
2022-08-17T08:15:26.153Z,933.01
2022-08-17T08:16:26.163Z,932.98
2022-08-17T08:17:26.178Z,933.01
2022-08-17T08:18:55.015Z,932.98
2022-08-17T08:19:26.210Z,932.96
2022-08-17T08:20:51.337Z,933.00
2022-08-17T08:21:26.242Z,932.96
2022-08-17T08:22:26.247Z,932.98
2022-08-17T08:23:26.263Z,933.02
2022-08-17T08:24:26.276Z,933.01
2022-08-17T08:25:28.870Z,932.99
2022-08-17T08:26:26.309Z,933.00
2022-08-17T08:27:26.317Z,933.00
2022-08-17T08:28:26.332Z,932.99
2022-08-17T08:29:26.347Z,933.02
2022-08-17T08:30:26.360Z,933.03
2022-08-17T08:31:26.375Z,933.06
2022-08-17T08:32:26.386Z,933.06
2022-08-17T08:33:26.403Z,933.08
2022-08-17T08:34:58.817Z,933.10
2022-08-17T08:35:26.432Z,933.15
2022-08-17T08:37:14.502Z,933.12
2022-08-17T08:37:34.539Z,933.17
2022-08-17T08:38:26.474Z,933.16
2022-08-17T08:39:26.549Z,933.14
2022-08-17T08:40:26.500Z,933.12
2022-08-17T08:41:26.514Z,933.15
2022-08-17T08:42:26.627Z,933.15
2022-08-17T08:43:26.543Z,933.18
2022-08-17T08:45:00.375Z,933.22
2022-08-17T08:45:26.570Z,933.22
2022-08-17T08:46:26.585Z,933.25
2022-08-17T08:47:26.599Z,933.31
2022-08-17T08:48:53.941Z,933.35
2022-08-17T08:49:51.896Z,933.37
2022-08-17T08:50:37.185Z,933.41
2022-08-17T08:51:26.655Z,933.42
2022-08-17T08:52:26.668Z,933.47
2022-08-17T08:53:26.682Z,933.48
2022-08-17T08:54:27.269Z,933.52
2022-08-17T08:55:26.711Z,933.52
2022-08-17T08:56:26.727Z,933.52
2022-08-17T08:57:33.411Z,933.52
2022-08-17T08:58:31.365Z,933.54
2022-08-17T08:59:26.765Z,933.58
2022-08-17T09:00:26.790Z,933.59
2022-08-17T09:01:26.870Z,933.64
2022-08-17T09:02:26.809Z,933.69
2022-08-17T09:03:43.816Z,933.73
2022-08-17T09:04:26.838Z,933.75
2022-08-17T09:05:26.851Z,933.75
2022-08-17T09:06:33.600Z,933.75
2022-08-17T09:07:26.886Z,933.75
2022-08-17T09:08:26.918Z,933.76
2022-08-17T09:09:26.912Z,933.73
2022-08-17T09:10:26.934Z,933.73
2022-08-17T09:11:26.936Z,933.68
2022-08-17T09:12:26.976Z,933.65
2022-08-17T09:13:26.988Z,933.64
2022-08-17T09:14:28.654Z,933.61
2022-08-17T09:15:26.997Z,933.61
2022-08-17T09:16:27.004Z,933.64
2022-08-17T09:17:27.021Z,933.62
2022-08-17T09:19:03.478Z,933.61
2022-08-17T09:19:27.048Z,933.63
2022-08-17T09:20:28.026Z,933.67
2022-08-17T09:21:27.079Z,933.65
2022-08-17T09:22:27.089Z,933.67
2022-08-17T09:23:27.104Z,933.65
2022-08-17T09:24:27.116Z,933.63
2022-08-17T09:25:27.132Z,933.73
2022-08-17T09:26:27.145Z,933.69
2022-08-17T09:27:27.159Z,933.69
2022-08-17T09:28:27.172Z,933.66
2022-08-17T09:29:27.189Z,933.65
2022-08-17T09:30:27.203Z,933.66
2022-08-17T09:31:32.719Z,933.66
2022-08-17T09:32:27.229Z,933.61
2022-08-17T09:33:27.244Z,933.66
2022-08-17T09:34:33.061Z,933.68
2022-08-17T09:35:36.733Z,933.69
2022-08-17T09:36:27.284Z,933.70
2022-08-17T09:37:27.299Z,933.72
2022-08-17T09:38:32.201Z,933.76
2022-08-17T09:39:27.438Z,933.73
2022-08-17T09:40:27.350Z,933.75
2022-08-17T09:41:27.353Z,933.79
2022-08-17T09:42:27.382Z,933.82
2022-08-17T09:43:27.383Z,933.81
2022-08-17T09:44:27.397Z,933.84
2022-08-17T09:45:27.409Z,933.81
2022-08-17T09:46:27.424Z,933.81
2022-08-17T09:47:27.441Z,933.82
2022-08-17T09:48:27.496Z,933.77
2022-08-17T09:49:27.465Z,933.78
2022-08-17T09:51:04.140Z,933.73
2022-08-17T09:51:27.497Z,933.71
2022-08-17T09:52:27.510Z,933.70
2022-08-17T09:53:31.676Z,933.69
2022-08-17T09:54:41.112Z,933.67
2022-08-17T09:55:27.552Z,933.68
2022-08-17T09:56:27.563Z,933.68
2022-08-17T09:57:30.790Z,933.72
2022-08-17T09:58:29.276Z,933.69
2022-08-17T09:59:27.605Z,933.71
2022-08-17T10:00:27.623Z,933.68
2022-08-17T10:01:27.710Z,933.69
2022-08-17T10:02:27.651Z,933.68
2022-08-17T10:03:27.662Z,933.71
2022-08-17T10:04:29.721Z,933.72
2022-08-17T10:05:27.689Z,933.77
2022-08-17T10:06:27.702Z,933.78
2022-08-17T10:07:27.716Z,933.85
2022-08-17T10:08:27.762Z,933.84
2022-08-17T10:09:27.750Z,933.83
2022-08-17T10:10:27.763Z,933.83
2022-08-17T10:11:33.844Z,933.77
2022-08-17T10:12:29.944Z,933.80
2022-08-17T10:13:27.800Z,933.82
2022-08-17T10:14:37.342Z,933.83
2022-08-17T10:15:27.826Z,933.85
2022-08-17T10:16:27.841Z,933.88
2022-08-17T10:17:27.857Z,933.85
2022-08-17T10:18:31.848Z,933.83
2022-08-17T10:19:27.886Z,933.86
2022-08-17T10:20:27.894Z,933.83
2022-08-17T10:21:27.911Z,933.83
2022-08-17T10:22:35.222Z,933.87
2022-08-17T10:23:27.938Z,933.91
2022-08-17T10:24:27.952Z,933.93
2022-08-17T10:25:48.600Z,933.96
2022-08-17T10:26:27.981Z,934.01
2022-08-17T10:27:27.992Z,934.01
2022-08-17T10:28:29.997Z,934.05
2022-08-17T10:29:29.004Z,934.07
2022-08-17T10:30:28.041Z,934.06
2022-08-17T10:31:34.650Z,934.09
2022-08-17T10:32:28.060Z,934.08
2022-08-17T10:33:28.076Z,934.09
2022-08-17T10:34:28.093Z,934.08
2022-08-17T10:35:28.112Z,934.10
2022-08-17T10:36:28.120Z,934.12
2022-08-17T10:37:28.131Z,934.13
2022-08-17T10:38:28.147Z,934.18
2022-08-17T10:39:28.191Z,934.20
2022-08-17T10:40:28.232Z,934.24
2022-08-17T10:41:28.186Z,934.23
2022-08-17T10:42:30.417Z,934.23
2022-08-17T10:43:28.214Z,934.21
2022-08-17T10:44:38.165Z,934.19
2022-08-17T10:45:28.244Z,934.16
2022-08-17T10:46:30.845Z,934.15
2022-08-17T10:47:28.472Z,934.14
2022-08-17T10:48:28.283Z,934.11
2022-08-17T10:49:28.296Z,934.11
2022-08-17T10:50:28.311Z,934.08
2022-08-17T10:51:28.325Z,934.08
2022-08-17T10:52:28.338Z,934.03
2022-08-17T10:53:28.352Z,934.02
2022-08-17T10:54:28.367Z,934.06
2022-08-17T10:55:28.379Z,934.07
2022-08-17T10:56:28.392Z,934.07
2022-08-17T10:57:28.407Z,934.08
2022-08-17T10:58:28.421Z,934.07
2022-08-17T10:59:28.434Z,934.10
2022-08-17T11:00:28.455Z,934.09
2022-08-17T11:01:28.541Z,934.10
2022-08-17T11:02:28.477Z,934.11
2022-08-17T11:03:28.490Z,934.17
2022-08-17T11:04:28.504Z,934.20
2022-08-17T11:05:28.519Z,934.21
2022-08-17T11:06:28.533Z,934.24
2022-08-17T11:07:28.547Z,934.27
2022-08-17T11:08:28.558Z,934.26
2022-08-17T11:09:28.572Z,934.24
2022-08-17T11:10:28.587Z,934.20
2022-08-17T11:11:28.603Z,934.23
2022-08-17T11:12:28.613Z,934.21
2022-08-17T11:13:28.631Z,934.21
2022-08-17T11:14:28.647Z,934.20
2022-08-17T11:15:28.656Z,934.21
2022-08-17T11:16:28.669Z,934.19
2022-08-17T11:17:28.684Z,934.17
2022-08-17T11:18:28.699Z,934.24
2022-08-17T11:19:28.713Z,934.19
2022-08-17T11:20:28.730Z,934.21
2022-08-17T11:21:28.736Z,934.24
2022-08-17T11:22:32.884Z,934.24
2022-08-17T11:23:28.765Z,934.26
2022-08-17T11:24:28.783Z,934.26
2022-08-17T11:25:28.795Z,934.26
2022-08-17T11:26:28.807Z,934.25
2022-08-17T11:27:28.820Z,934.22
2022-08-17T11:28:28.835Z,934.21
2022-08-17T11:29:29.355Z,934.23
2022-08-17T11:30:28.861Z,934.23
2022-08-17T11:31:38.990Z,934.20
2022-08-17T11:32:28.890Z,934.25
2022-08-17T11:33:28.903Z,934.24
2022-08-17T11:34:28.921Z,934.23
2022-08-17T11:35:28.932Z,934.25
2022-08-17T11:36:28.945Z,934.20
2022-08-17T11:37:28.965Z,934.20
2022-08-17T11:38:28.971Z,934.21
2022-08-17T11:39:29.038Z,934.24
2022-08-17T11:40:29.001Z,934.25
2022-08-17T11:41:29.014Z,934.31
2022-08-17T11:42:29.231Z,934.35
2022-08-17T11:43:29.041Z,934.39
2022-08-17T11:44:29.055Z,934.40
2022-08-17T11:45:32.531Z,934.38
2022-08-17T11:46:29.082Z,934.38
2022-08-17T11:47:29.097Z,934.38
2022-08-17T11:48:29.607Z,934.39
2022-08-17T11:49:29.123Z,934.36
2022-08-17T11:50:29.138Z,934.38
2022-08-17T11:51:29.153Z,934.41
2022-08-17T11:52:29.166Z,934.44
2022-08-17T11:53:29.382Z,934.41
2022-08-17T11:54:34.077Z,934.44
2022-08-17T11:55:35.785Z,934.47
2022-08-17T11:56:29.219Z,934.44
2022-08-17T11:57:29.236Z,934.45
2022-08-17T11:58:29.247Z,934.49
2022-08-17T11:59:29.260Z,934.49
2022-08-17T12:00:29.475Z,934.51
2022-08-17T12:01:29.287Z,934.49
2022-08-17T12:02:29.867Z,934.53
2022-08-17T12:03:29.340Z,934.52
2022-08-17T12:04:29.407Z,934.56
2022-08-17T12:05:29.344Z,934.57
2022-08-17T12:06:30.493Z,934.59
2022-08-17T12:07:29.370Z,934.57
2022-08-17T12:08:29.825Z,934.57
2022-08-17T12:09:29.570Z,934.59
2022-08-17T12:10:29.431Z,934.67
2022-08-17T12:12:04.669Z,934.69
2022-08-17T12:12:29.440Z,934.69
2022-08-17T12:13:38.514Z,934.68
2022-08-17T12:14:45.456Z,934.67
2022-08-17T12:15:29.486Z,934.62
2022-08-17T12:16:29.495Z,934.67
2022-08-17T12:17:41.069Z,934.70
2022-08-17T12:18:29.724Z,934.71
2022-08-17T12:19:29.541Z,934.68
2022-08-17T12:20:29.560Z,934.68
2022-08-17T12:21:29.573Z,934.66
2022-08-17T12:22:29.579Z,934.65
2022-08-17T12:23:29.997Z,934.59
2022-08-17T12:24:29.605Z,934.57
2022-08-17T12:25:29.619Z,934.54
2022-08-17T12:26:29.631Z,934.55
2022-08-17T12:27:57.753Z,934.47
2022-08-17T12:28:29.658Z,934.44